createdAt,value
2022-10-29T00:01:44.562Z,77042.50
2022-10-29T00:04:11.718Z,77048.66
2022-10-29T00:06:40.253Z,77048.66
2022-10-29T00:09:07.357Z,77044.56
2022-10-29T00:11:34.640Z,77040.44
2022-10-29T00:14:01.851Z,77048.66
2022-10-29T00:16:30.291Z,77044.56
2022-10-29T00:18:58.027Z,77052.78
2022-10-29T00:21:25.408Z,77063.06
2022-10-29T00:23:52.978Z,77061.00
2022-10-29T00:26:20.428Z,77050.72
2022-10-29T00:28:47.597Z,77056.88
2022-10-29T00:31:15.456Z,77044.56
2022-10-29T00:33:42.789Z,77040.44
2022-10-29T00:36:14.119Z,77032.22
2022-10-29T00:38:41.983Z,77036.34
2022-10-29T00:41:10.687Z,77032.22
2022-10-29T00:43:37.944Z,77040.44
2022-10-29T00:46:06.394Z,77040.44
2022-10-29T00:48:34.175Z,77040.44
2022-10-29T00:51:02.183Z,77028.09
2022-10-29T00:53:29.560Z,77040.44
2022-10-29T00:55:56.626Z,77032.22
2022-10-29T00:58:23.754Z,77032.22
2022-10-29T01:00:51.054Z,77040.44
2022-10-29T01:03:18.090Z,77040.44
2022-10-29T01:05:45.324Z,77040.44
2022-10-29T01:08:13.431Z,77046.59
2022-10-29T01:10:59.784Z,77034.28
2022-10-29T01:13:46.315Z,77048.66
2022-10-29T01:16:16.724Z,77048.66
2022-10-29T01:18:47.094Z,77044.56
2022-10-29T01:21:18.907Z,77042.50
2022-10-29T01:24:05.387Z,77052.78
2022-10-29T01:26:47.920Z,77046.59
2022-10-29T01:29:18.162Z,77044.56
2022-10-29T01:31:46.161Z,77048.66
2022-10-29T01:34:25.419Z,77040.44
2022-10-29T01:36:58.783Z,77044.56
2022-10-29T01:39:28.327Z,77036.34
2022-10-29T01:42:02.418Z,77032.22
2022-10-29T01:44:37.525Z,77030.16
2022-10-29T01:47:05.048Z,77038.38
2022-10-29T01:49:36.028Z,77036.34
2022-10-29T01:52:03.412Z,77040.44
2022-10-29T01:54:30.683Z,77044.56
2022-10-29T01:56:58.004Z,77052.78
2022-10-29T01:59:43.115Z,77046.59
2022-10-29T02:02:48.515Z,77065.13
2022-10-29T02:05:35.126Z,77085.66
2022-10-29T02:08:11.266Z,77065.13
2022-10-29T02:10:47.728Z,77087.72
2022-10-29T02:13:15.250Z,77098.00
2022-10-29T02:15:43.794Z,77106.22
2022-10-29T02:18:11.590Z,77102.13
2022-10-29T02:20:42.151Z,77106.22
2022-10-29T02:23:09.325Z,77102.13
2022-10-29T02:25:36.505Z,77085.66
2022-10-29T02:28:03.849Z,77093.91
2022-10-29T02:30:30.977Z,77081.56
2022-10-29T02:32:58.346Z,77081.56
2022-10-29T02:35:25.800Z,77085.66
2022-10-29T02:37:53.047Z,77081.56
2022-10-29T02:40:20.091Z,77089.78
2022-10-29T02:42:47.123Z,77095.94
2022-10-29T02:45:14.379Z,77089.78
2022-10-29T02:47:42.430Z,77085.66
2022-10-29T02:50:09.552Z,77098.00
2022-10-29T02:52:38.788Z,77095.94
2022-10-29T02:55:06.108Z,77098.00
2022-10-29T02:57:33.544Z,77102.13
2022-10-29T03:00:00.734Z,77108.28
2022-10-29T03:02:27.901Z,77114.47
2022-10-29T03:04:56.079Z,77118.56
2022-10-29T03:07:24.722Z,77122.69
2022-10-29T03:09:51.728Z,77122.69
2022-10-29T03:12:18.818Z,77128.84
2022-10-29T03:14:46.352Z,77139.13
2022-10-29T03:17:13.395Z,77130.91
2022-10-29T03:19:41.028Z,77124.72
2022-10-29T03:22:08.206Z,77135.03
2022-10-29T03:24:35.496Z,77118.56
2022-10-29T03:27:02.888Z,77130.91
2022-10-29T03:29:29.920Z,77130.91
2022-10-29T03:31:56.952Z,77130.91
2022-10-29T03:34:24.014Z,77132.97
2022-10-29T03:36:51.297Z,77130.91
2022-10-29T03:39:18.499Z,77128.84
2022-10-29T03:41:45.508Z,77116.50
2022-10-29T03:44:12.598Z,77118.56
2022-10-29T03:46:39.849Z,77110.34
2022-10-29T03:49:07.207Z,77110.34
2022-10-29T03:51:34.410Z,77098.00
2022-10-29T03:54:01.688Z,77089.78
2022-10-29T03:56:29.112Z,77106.22
2022-10-29T03:58:56.183Z,77110.34
2022-10-29T04:01:23.536Z,77108.28
2022-10-29T04:03:51.307Z,77106.22
2022-10-29T04:06:18.354Z,77112.41
2022-10-29T04:08:49.508Z,77106.22
2022-10-29T04:11:16.560Z,77106.22
2022-10-29T04:13:43.708Z,77093.91
2022-10-29T04:16:10.840Z,77102.13
2022-10-29T04:18:37.893Z,77104.19
2022-10-29T04:29:29.507Z,77118.56
2022-10-29T04:31:56.563Z,77126.78
2022-10-29T04:34:23.688Z,77137.06
2022-10-29T04:36:52.134Z,77139.13
2022-10-29T04:39:21.026Z,77151.47
2022-10-29T04:41:50.620Z,77135.03
2022-10-29T04:44:18.390Z,77135.03
2022-10-29T04:46:45.403Z,77126.78
2022-10-29T04:49:12.799Z,77122.69
2022-10-29T04:51:39.836Z,77110.34
2022-10-29T04:54:07.002Z,77110.34
2022-10-29T04:56:34.077Z,77110.34
2022-10-29T04:59:01.287Z,77106.22
2022-10-29T05:01:28.566Z,77102.13
2022-10-29T05:03:59.015Z,77102.13
2022-10-29T05:06:30.494Z,77102.13
2022-10-29T05:08:57.606Z,77102.13
2022-10-29T05:11:24.698Z,77098.00
2022-10-29T05:13:51.749Z,77093.91
2022-10-29T05:16:18.776Z,77091.84
2022-10-29T05:18:46.403Z,77091.84
2022-10-29T05:21:15.447Z,77087.72
2022-10-29T05:23:43.548Z,77093.91
2022-10-29T05:26:10.572Z,77093.91
2022-10-29T05:28:37.650Z,77100.06
2022-10-29T05:31:04.861Z,77098.00
2022-10-29T05:33:31.908Z,77093.91
2022-10-29T05:35:59.830Z,77087.72
2022-10-29T05:38:27.678Z,77081.56
2022-10-29T05:40:54.873Z,77073.34
2022-10-29T05:43:21.969Z,77073.34
2022-10-29T05:45:49.828Z,77061.00
2022-10-29T05:48:17.052Z,77044.56
2022-10-29T05:50:44.304Z,77026.03
2022-10-29T05:53:12.172Z,77019.88
2022-10-29T05:55:39.268Z,77013.72
2022-10-29T05:58:07.000Z,76999.31
2022-10-29T06:00:34.874Z,76982.88
2022-10-29T06:03:02.827Z,76960.25
2022-10-29T06:05:30.189Z,76937.66
2022-10-29T06:07:58.191Z,76912.97
2022-10-29T06:10:25.608Z,76906.81
2022-10-29T06:12:52.710Z,76892.41
2022-10-29T06:15:20.298Z,76888.31
2022-10-29T06:17:51.006Z,76873.91
2022-10-29T06:20:19.189Z,76863.63
2022-10-29T06:22:46.747Z,76853.34
2022-10-29T06:25:13.995Z,76851.31
2022-10-29T06:27:42.472Z,76867.75
2022-10-29T06:30:09.812Z,76869.81
2022-10-29T06:32:38.810Z,76875.97
2022-10-29T06:35:06.180Z,76865.69
2022-10-29T06:37:37.235Z,76775.22
2022-10-29T06:40:04.792Z,76672.44
2022-10-29T06:42:31.942Z,76662.16
2022-10-29T06:44:59.033Z,76727.94
2022-10-29T06:47:26.215Z,76639.56
2022-10-29T06:49:53.288Z,76621.06
2022-10-29T06:52:20.429Z,76582.00
2022-10-29T06:54:47.505Z,76658.06
2022-10-29T06:57:14.575Z,76738.22
2022-10-29T06:59:44.265Z,76773.19
2022-10-29T07:02:12.384Z,76793.75
2022-10-29T07:04:40.078Z,76797.84
2022-10-29T07:07:07.125Z,76806.06
2022-10-29T07:09:34.438Z,76806.06
2022-10-29T07:12:01.633Z,76828.69
2022-10-29T07:14:28.762Z,76832.78
2022-10-29T07:16:56.279Z,76847.19
2022-10-29T07:19:23.462Z,76861.56
2022-10-29T07:21:50.514Z,76861.56
2022-10-29T07:24:18.385Z,76855.41
2022-10-29T07:26:45.892Z,76849.25
2022-10-29T07:29:12.940Z,76855.41
2022-10-29T07:31:40.040Z,76853.34
2022-10-29T07:34:07.132Z,76853.34
2022-10-29T07:36:34.258Z,76855.41
2022-10-29T07:39:04.701Z,76851.31
2022-10-29T07:41:32.233Z,76801.97
2022-10-29T07:44:00.190Z,76818.41
2022-10-29T07:46:27.329Z,76834.84
2022-10-29T07:48:54.379Z,76838.97
2022-10-29T07:51:21.531Z,76818.41
2022-10-29T07:53:48.951Z,76820.47
2022-10-29T07:56:16.281Z,76812.25
2022-10-29T07:58:43.318Z,76758.78
2022-10-29T08:01:10.730Z,76750.56
2022-10-29T08:03:37.895Z,76746.44
2022-10-29T08:06:06.708Z,76785.50
2022-10-29T08:08:34.971Z,76810.19
2022-10-29T08:11:02.331Z,76810.19
2022-10-29T08:13:29.576Z,76841.03
2022-10-29T08:15:56.646Z,76847.19
2022-10-29T08:18:23.979Z,76847.19
2022-10-29T08:20:51.688Z,76855.41
2022-10-29T08:23:19.356Z,76843.06
2022-10-29T08:25:46.665Z,76838.97
2022-10-29T08:28:14.149Z,76814.28
2022-10-29T08:30:41.484Z,76810.19
2022-10-29T08:33:09.118Z,76799.91
2022-10-29T08:35:36.406Z,76795.78
2022-10-29T08:38:04.139Z,76769.06
2022-10-29T08:40:32.198Z,76742.34
2022-10-29T08:43:09.156Z,76725.91
2022-10-29T08:45:38.756Z,76715.63
2022-10-29T08:48:08.855Z,76707.41
2022-10-29T08:50:41.155Z,76715.63
2022-10-29T08:53:23.228Z,76719.72
2022-10-29T08:55:52.045Z,76734.13
2022-10-29T08:58:21.791Z,76752.63
2022-10-29T09:00:49.388Z,76746.44
2022-10-29T09:03:16.457Z,76748.50
2022-10-29T09:06:02.520Z,76742.34
2022-10-29T09:08:48.311Z,76744.41
2022-10-29T09:11:21.258Z,76732.06
2022-10-29T09:13:56.132Z,76715.63
2022-10-29T09:16:35.239Z,76678.63
2022-10-29T09:19:11.643Z,76645.72
2022-10-29T09:21:41.288Z,76569.66
2022-10-29T09:24:08.905Z,76473.03
2022-10-29T09:26:51.572Z,76325.03
2022-10-29T09:29:35.983Z,76172.94
2022-10-29T09:32:03.028Z,75996.19
2022-10-29T09:34:38.728Z,76156.50
2022-10-29T09:37:12.360Z,76314.78
2022-10-29T09:39:40.655Z,76267.50
2022-10-29T09:42:11.197Z,76263.38
2022-10-29T09:44:39.984Z,76230.50
2022-10-29T09:47:17.038Z,76109.22
2022-10-29T09:49:47.451Z,76061.94
2022-10-29T09:52:15.532Z,75835.88
2022-10-29T09:54:43.735Z,75724.88
2022-10-29T09:57:16.713Z,75704.34
2022-10-29T09:59:51.618Z,75712.56
2022-10-29T10:02:18.926Z,75638.56
2022-10-29T10:04:45.982Z,75597.47
2022-10-29T10:07:16.637Z,75560.47
2022-10-29T10:09:54.584Z,75724.88
2022-10-29T10:12:28.465Z,75809.16
2022-10-29T10:15:02.825Z,75794.75
2022-10-29T10:17:37.127Z,75626.25
2022-10-29T10:20:04.368Z,75741.31
2022-10-29T10:22:31.557Z,75729.00
2022-10-29T10:24:59.148Z,75714.59
2022-10-29T10:27:29.597Z,75683.78
2022-10-29T10:30:03.260Z,75597.47
2022-10-29T10:32:30.696Z,75646.78
2022-10-29T10:34:57.732Z,75673.50
2022-10-29T10:37:24.848Z,75716.66
2022-10-29T10:40:00.643Z,75640.63
2022-10-29T10:42:28.730Z,75607.75
2022-10-29T10:45:14.532Z,75576.91
2022-10-29T10:47:46.076Z,75663.22
2022-10-29T10:50:16.256Z,75655.00
2022-10-29T10:52:44.256Z,75659.13
2022-10-29T10:55:23.076Z,75618.03
2022-10-29T10:57:54.079Z,75659.13
2022-10-29T11:00:21.291Z,75671.44
2022-10-29T11:02:55.179Z,75724.88
2022-10-29T11:05:23.085Z,75794.75
2022-10-29T11:07:56.582Z,75895.47
2022-10-29T11:10:27.141Z,75807.09
2022-10-29T11:12:57.491Z,75700.22
2022-10-29T11:15:29.558Z,75659.13
2022-10-29T11:18:03.455Z,75753.66
2022-10-29T11:20:37.513Z,75926.28
2022-10-29T11:23:19.756Z,75946.84
2022-10-29T11:25:49.233Z,75852.31
2022-10-29T11:28:21.726Z,75807.09
2022-10-29T11:30:50.729Z,75782.44
2022-10-29T11:33:23.145Z,75811.22
2022-10-29T11:35:51.573Z,75860.53
2022-10-29T11:38:19.981Z,75844.09
2022-10-29T11:40:58.674Z,75844.09
2022-10-29T11:43:25.726Z,75920.13
2022-10-29T11:46:11.050Z,75872.84
2022-10-29T11:48:57.037Z,75905.75
2022-10-29T11:51:39.209Z,75905.75
2022-10-29T11:54:23.781Z,75885.19
2022-10-29T11:56:53.009Z,75858.47
2022-10-29T11:59:40.732Z,75885.19
2022-10-29T12:02:13.516Z,75860.53
2022-10-29T12:04:47.064Z,75872.84
2022-10-29T12:07:32.281Z,75905.75
2022-10-29T12:09:59.633Z,75819.44
2022-10-29T12:12:53.798Z,75819.44
2022-10-29T12:15:28.092Z,75864.63
2022-10-29T12:17:58.718Z,75895.47
2022-10-29T12:20:34.837Z,75909.84
2022-10-29T12:23:04.363Z,75946.84
2022-10-29T12:25:33.159Z,75938.63
2022-10-29T12:28:00.432Z,75909.84
2022-10-29T12:30:27.513Z,75864.63
2022-10-29T12:33:03.613Z,75835.88
2022-10-29T12:35:37.164Z,75831.75
2022-10-29T12:38:07.469Z,75860.53
2022-10-29T12:40:34.991Z,75905.75
2022-10-29T12:43:10.692Z,75883.13
2022-10-29T12:46:06.915Z,75874.91
2022-10-29T12:48:34.060Z,75862.59
2022-10-29T12:51:06.771Z,75881.09
2022-10-29T12:53:52.703Z,75893.41
2022-10-29T12:56:19.756Z,75885.19
2022-10-29T12:58:52.763Z,75852.31
2022-10-29T13:01:38.236Z,75852.31
2022-10-29T13:04:22.833Z,75852.31
2022-10-29T13:06:56.163Z,75870.81
2022-10-29T13:09:25.569Z,75881.09
2022-10-29T13:11:52.913Z,75911.91
2022-10-29T13:14:21.322Z,75932.47
2022-10-29T13:16:49.646Z,75936.56
2022-10-29T13:19:18.541Z,75946.84
2022-10-29T13:21:56.200Z,75959.19
2022-10-29T13:24:23.983Z,75944.78
2022-10-29T13:27:05.864Z,75953.00
2022-10-29T13:29:43.070Z,75959.19
2022-10-29T13:32:28.608Z,75955.06
2022-10-29T13:34:57.044Z,75940.69
2022-10-29T13:37:48.084Z,75940.69
2022-10-29T13:40:30.547Z,75942.75
2022-10-29T13:43:01.864Z,75967.41
2022-10-29T13:45:29.244Z,75987.97
2022-10-29T13:47:58.964Z,75992.06
2022-10-29T13:50:26.044Z,75990.00
2022-10-29T13:52:53.906Z,76004.41
2022-10-29T13:55:21.786Z,75998.22
2022-10-29T13:58:06.354Z,76000.28
2022-10-29T14:00:35.278Z,76024.94
2022-10-29T14:03:03.020Z,76037.28
2022-10-29T14:05:32.089Z,76037.28
2022-10-29T14:08:11.559Z,76055.78
2022-10-29T14:10:41.990Z,76066.06
2022-10-29T14:13:19.292Z,76064.00
2022-10-29T14:16:05.584Z,76070.16
2022-10-29T14:18:34.051Z,76086.63
2022-10-29T14:21:02.186Z,76094.84
2022-10-29T14:23:29.699Z,76096.88
2022-10-29T14:25:57.397Z,76103.06
2022-10-29T14:28:25.559Z,76115.38
2022-10-29T14:31:18.996Z,76105.13
2022-10-29T14:33:56.160Z,76113.34
2022-10-29T14:36:42.537Z,76115.38
2022-10-29T14:39:15.548Z,76123.63
2022-10-29T14:41:42.627Z,76123.63
2022-10-29T14:44:29.887Z,76125.66
2022-10-29T14:47:04.264Z,76140.06
2022-10-29T14:49:32.599Z,76131.84
2022-10-29T14:52:02.120Z,76140.06
2022-10-29T14:54:30.311Z,76144.16
2022-10-29T14:56:57.955Z,76131.84
2022-10-29T14:59:28.266Z,76129.78
2022-10-29T15:02:05.812Z,76144.16
2022-10-29T15:04:49.011Z,76140.06
2022-10-29T15:07:17.835Z,76131.84
2022-10-29T15:09:45.819Z,76135.94
2022-10-29T15:12:15.846Z,76140.06
2022-10-29T15:14:46.363Z,76148.28
2022-10-29T15:17:31.663Z,76152.38
2022-10-29T15:19:59.350Z,76150.34
2022-10-29T15:22:29.312Z,76150.34
2022-10-29T15:24:56.352Z,76160.59
2022-10-29T15:27:24.388Z,76175.00
2022-10-29T15:29:52.012Z,76179.09
2022-10-29T15:32:19.160Z,76185.28
2022-10-29T15:34:52.956Z,76193.50
2022-10-29T15:37:20.847Z,76191.44
2022-10-29T15:39:58.491Z,76195.56
2022-10-29T15:42:32.432Z,76201.72
2022-10-29T15:45:02.696Z,76197.59
2022-10-29T15:47:30.580Z,76205.81
2022-10-29T15:49:57.813Z,76214.06
2022-10-29T15:52:26.907Z,76222.28
2022-10-29T15:54:53.930Z,76214.06
2022-10-29T15:57:21.535Z,76214.06
2022-10-29T15:59:48.756Z,76222.28
2022-10-29T16:02:17.744Z,76232.56
2022-10-29T16:04:45.054Z,76218.16
2022-10-29T16:07:13.766Z,76218.16
2022-10-29T16:09:45.183Z,76232.56
2022-10-29T16:12:12.248Z,76236.66
2022-10-29T16:14:39.347Z,76240.78
2022-10-29T16:17:11.881Z,76226.38
2022-10-29T16:19:39.078Z,76226.38
2022-10-29T16:22:06.216Z,76228.44
2022-10-29T16:24:35.054Z,76226.38
2022-10-29T16:27:02.532Z,76230.50
2022-10-29T16:29:29.721Z,76234.59
2022-10-29T16:31:57.234Z,76238.72
2022-10-29T16:34:24.882Z,76238.72
2022-10-29T16:36:51.994Z,76234.59
2022-10-29T16:39:19.399Z,76240.78
2022-10-29T16:41:46.571Z,76238.72
2022-10-29T16:44:13.986Z,76226.38
2022-10-29T16:46:41.037Z,76230.50
2022-10-29T16:49:08.069Z,76226.38
2022-10-29T16:51:36.167Z,76218.16
2022-10-29T16:54:03.282Z,76218.16
2022-10-29T16:56:31.085Z,76209.94
2022-10-29T16:59:01.852Z,76212.00
2022-10-29T17:01:29.476Z,76205.81
2022-10-29T17:03:56.905Z,76201.72
2022-10-29T17:06:24.007Z,76205.81
2022-10-29T17:08:52.831Z,76201.72
2022-10-29T17:11:19.892Z,76218.16
2022-10-29T17:13:47.615Z,76212.00
2022-10-29T17:16:16.324Z,76220.22
2022-10-29T17:18:43.723Z,76218.16
2022-10-29T17:21:11.976Z,76214.06
2022-10-29T17:23:39.949Z,76220.22
2022-10-29T17:26:07.013Z,76222.28
2022-10-29T17:28:36.595Z,76214.06
2022-10-29T17:31:05.038Z,76226.38
2022-10-29T17:33:32.115Z,76218.16
2022-10-29T17:36:02.874Z,76222.28
2022-10-29T17:38:30.607Z,76228.44
2022-10-29T17:40:58.863Z,76220.22
2022-10-29T17:43:26.026Z,76230.50
2022-10-29T17:45:53.147Z,76232.56
2022-10-29T17:48:24.003Z,76232.56
2022-10-29T17:50:55.814Z,76218.16
2022-10-29T17:53:23.669Z,76214.06
2022-10-29T17:55:50.797Z,76207.88
2022-10-29T17:58:18.353Z,76214.06
2022-10-29T18:00:48.373Z,76214.06
2022-10-29T18:03:15.516Z,76222.28
2022-10-29T18:05:42.953Z,76207.88
2022-10-29T18:08:11.086Z,76218.16
2022-10-29T18:10:38.871Z,76218.16
2022-10-29T18:13:08.228Z,76218.16
2022-10-29T18:15:36.669Z,76218.16
2022-10-29T18:18:05.819Z,76222.28
2022-10-29T18:20:36.955Z,76218.16
2022-10-29T18:23:04.024Z,76226.38
2022-10-29T18:25:31.167Z,76218.16
2022-10-29T18:27:58.298Z,76218.16
2022-10-29T18:30:26.601Z,76220.22
2022-10-29T18:32:53.890Z,76232.56
2022-10-29T18:35:21.774Z,76234.59
2022-10-29T18:37:48.882Z,76236.66
2022-10-29T18:40:16.040Z,76249.00
2022-10-29T18:42:43.271Z,76253.09
2022-10-29T18:45:10.669Z,76251.03
2022-10-29T18:47:39.199Z,76234.59
2022-10-29T18:50:06.595Z,76238.72
2022-10-29T18:52:33.638Z,76234.59
2022-10-29T18:55:01.048Z,76238.72
2022-10-29T18:57:28.246Z,76226.38
2022-10-29T18:59:55.322Z,76234.59
2022-10-29T19:02:22.560Z,76240.78
2022-10-29T19:04:50.002Z,76238.72
2022-10-29T19:07:17.138Z,76238.72
2022-10-29T19:09:44.161Z,76238.72
2022-10-29T19:12:13.137Z,76232.56
2022-10-29T19:14:40.461Z,76238.72
2022-10-29T19:17:07.687Z,76242.81
2022-10-29T19:19:34.753Z,76234.59
2022-10-29T19:22:01.779Z,76238.72
2022-10-29T19:24:29.055Z,76234.59
2022-10-29T19:26:56.437Z,76238.72
2022-10-29T19:29:23.596Z,76226.38
2022-10-29T19:31:50.619Z,76238.72
2022-10-29T19:34:18.068Z,76238.72
2022-10-29T19:36:45.383Z,76244.88
2022-10-29T19:39:12.474Z,76238.72
2022-10-29T19:41:39.519Z,76226.38
2022-10-29T19:44:08.836Z,76212.00
2022-10-29T19:46:35.970Z,76205.81
2022-10-29T19:49:03.639Z,76203.78
2022-10-29T19:51:31.068Z,76193.50
2022-10-29T19:54:01.497Z,76193.50
2022-10-29T19:56:28.625Z,76216.09
2022-10-29T19:58:56.483Z,76218.16
2022-10-29T20:01:23.865Z,76214.06
2022-10-29T20:03:51.492Z,76207.88
2022-10-29T20:06:18.584Z,76201.72
2022-10-29T20:08:45.708Z,76205.81
2022-10-29T20:11:12.878Z,76197.59
2022-10-29T20:13:40.642Z,76199.66
2022-10-29T20:16:11.951Z,76193.50
2022-10-29T20:18:40.479Z,76187.31
2022-10-29T20:21:07.679Z,76189.38
2022-10-29T20:23:36.266Z,76187.31
2022-10-29T20:26:03.524Z,76191.44
2022-10-29T20:28:30.578Z,76170.88
2022-10-29T20:31:13.074Z,76172.94
2022-10-29T20:33:40.576Z,76172.94
2022-10-29T20:36:08.123Z,76172.94
2022-10-29T20:38:35.297Z,76168.84
2022-10-29T20:41:02.355Z,76160.59
2022-10-29T20:43:29.559Z,76168.84
2022-10-29T20:46:00.931Z,76162.66
2022-10-29T20:48:28.381Z,76172.94
2022-10-29T20:50:55.749Z,76160.59
2022-10-29T20:53:22.761Z,76162.66
2022-10-29T20:55:51.552Z,76175.00
2022-10-29T20:58:18.953Z,76168.84
2022-10-29T21:00:47.052Z,76177.06
2022-10-29T21:03:17.890Z,76185.28
2022-10-29T21:05:47.868Z,76172.94
2022-10-29T21:08:14.995Z,76177.06
2022-10-29T21:10:42.053Z,76181.16
2022-10-29T21:13:09.141Z,76193.50
2022-10-29T21:15:36.658Z,76203.78
2022-10-29T21:18:04.981Z,76205.81
2022-10-29T21:20:32.416Z,76218.16
2022-10-29T21:22:59.915Z,76228.44
2022-10-29T21:25:27.541Z,76226.38
2022-10-29T21:27:55.975Z,76218.16
2022-10-29T21:30:25.211Z,76228.44
2022-10-29T21:32:53.833Z,76226.38
2022-10-29T21:35:20.886Z,76209.94
2022-10-29T21:37:47.907Z,76205.81
2022-10-29T21:40:15.003Z,76214.06
2022-10-29T21:42:42.389Z,76209.94
2022-10-29T21:45:09.676Z,76209.94
2022-10-29T21:47:37.095Z,76193.50
2022-10-29T21:50:04.251Z,76201.72
2022-10-29T21:52:32.105Z,76185.28
2022-10-29T21:54:59.178Z,76185.28
2022-10-29T21:57:29.983Z,76191.44
2022-10-29T21:59:57.183Z,76183.22
2022-10-29T22:02:24.780Z,76185.28
2022-10-29T22:04:52.169Z,76172.94
2022-10-29T22:07:19.390Z,76164.72
2022-10-29T22:09:46.811Z,76160.59
2022-10-29T22:12:13.866Z,76160.59
2022-10-29T22:14:41.281Z,76148.28
2022-10-29T22:17:08.333Z,76148.28
2022-10-29T22:19:35.383Z,76148.28
2022-10-29T22:22:03.181Z,76146.22
2022-10-29T22:24:30.203Z,76131.84
2022-10-29T22:26:57.291Z,76123.63
2022-10-29T22:29:24.353Z,76123.63
2022-10-29T22:31:51.444Z,76148.28
2022-10-29T22:34:18.645Z,76146.22
2022-10-29T22:36:45.766Z,76152.38
2022-10-29T22:39:13.698Z,76148.28
2022-10-29T22:41:41.377Z,76140.06
2022-10-29T22:44:08.398Z,76144.16
2022-10-29T22:46:35.469Z,76133.88
2022-10-29T22:49:02.622Z,76123.63
2022-10-29T22:51:30.558Z,76127.72
2022-10-29T22:53:57.823Z,76127.72
2022-10-29T22:56:25.836Z,76119.50
2022-10-29T22:58:53.192Z,76119.50
2022-10-29T23:01:21.223Z,76107.16
2022-10-29T23:03:49.162Z,76113.34
2022-10-29T23:06:16.986Z,76111.28
2022-10-29T23:08:46.820Z,76111.28
2022-10-29T23:11:19.536Z,76115.38
2022-10-29T23:13:50.561Z,76119.50
2022-10-29T23:16:17.644Z,76119.50
2022-10-29T23:18:49.137Z,76117.44
2022-10-29T23:21:17.102Z,76103.06
2022-10-29T23:23:44.239Z,76103.06
2022-10-29T23:26:13.509Z,76109.22
2022-10-29T23:28:41.123Z,76105.13
2022-10-29T23:31:12.704Z,76101.00
2022-10-29T23:33:42.649Z,76098.94
2022-10-29T23:36:09.993Z,76101.00
2022-10-29T23:38:37.110Z,76098.94
2022-10-29T23:41:05.600Z,76082.50
2022-10-29T23:43:32.651Z,76074.28
2022-10-29T23:45:59.705Z,76074.28
2022-10-29T23:48:26.828Z,76078.41
2022-10-29T23:50:53.936Z,76068.13
2022-10-29T23:53:21.006Z,76070.16
2022-10-29T23:55:48.125Z,76064.00
2022-10-29T23:58:15.867Z,76059.91
